Terminal Aerodrome Forecast
Issued by NWS

Home | Current Version | Previous Version | Text Only | Print | Product List | Glossary On
Versions: 1 2 3 4 5 6 7 8 9 10 11 12 13 14 15 16 17 18 19 20 21 22 23 24 25 26 27
000
FTAK31 PAFA 221739
TAFAOM
TAF
PAOM 221739Z 2218/2318 24019KT P6SM -RA BKN025 OVC040
      TEMPO 2220/2224 P6SM -RA OVC015
     FM230000 24010KT P6SM -RA OVC015
     FM230300 VRB05KT P6SM -SHRA OVC050
     FM230900 35005KT P6SM BKN120=

USA.gov is the U.S. government's official web portal to all federal, state and local government web resources and services.